Time;durP1;ratioP1;P1;durP2;ratioP2;P2;SDS_P1;SDS_P2;PMS_P1;PMS_P2;Temp;Humidity;BMP_temperature;BMP_pressure;BME280_temperature;BME280_humidity;BME280_pressure;Samples;Min_cycle;Max_cycle;Signal;HPM_P1;HPM_P2
2022/05/04 00:00:15;;;;;;;;;2.50;0.00;;;;;;;;5101175;28;8785;-48
2022/05/04 00:03:00;;;;;;;;;3.00;0.00;;;;;;;;5100746;28;8797;-53
2022/05/04 00:05:44;;;;;;;;;1.00;0.00;;;;;;;;5088942;28;8773;-54
2022/05/04 00:08:28;;;;;;;;;0.50;0.00;;;;;;;;5080581;28;8787;-51
2022/05/04 00:11:13;;;;;;;;;0.00;0.00;;;;;;;;5080714;28;8775;-54
2022/05/04 00:13:57;;;;;;;;;0.25;0.00;;;;;;;;5100807;28;8942;-54
2022/05/04 00:16:41;;;;;;;;;1.00;0.25;;;;;;;;5100754;28;8777;-50
2022/05/04 00:19:26;;;;;;;;;0.00;0.00;;;;;;;;5100788;28;9551;-54
2022/05/04 00:22:10;;;;;;;;;0.75;0.00;;;;;;;;5100883;28;8785;-53
2022/05/04 00:24:55;;;;;;;;;0.00;0.00;;;;;;;;5100332;28;8805;-52
2022/05/04 00:27:39;;;;;;;;;2.75;0.00;;;;;;;;5100427;28;8773;-55
2022/05/04 00:30:23;;;;;;;;;0.00;0.00;;;;;;;;5098060;28;8777;-48
2022/05/04 00:33:08;;;;;;;;;0.00;0.00;;;;;;;;5081454;28;8953;-51
2022/05/04 00:35:52;;;;;;;;;0.75;0.00;;;;;;;;5079975;28;8787;-54
2022/05/04 00:38:37;;;;;;;;;0.75;0.00;;;;;;;;5080078;28;8771;-53
2022/05/04 00:41:21;;;;;;;;;2.75;0.00;;;;;;;;5080115;28;8779;-54
2022/05/04 00:44:06;;;;;;;;;1.75;0.00;;;;;;;;5079827;28;8818;-50
2022/05/04 00:46:50;;;;;;;;;1.75;0.00;;;;;;;;5087035;28;9596;-52
2022/05/04 00:49:35;;;;;;;;;2.25;0.00;;;;;;;;5078623;28;8793;-52
2022/05/04 00:52:19;;;;;;;;;0.75;0.00;;;;;;;;5100049;28;8789;-52
2022/05/04 00:55:06;;;;;;;;;0.00;0.00;;;;;;;;5099539;28;8800;-52
2022/05/04 01:00:58;;;;;;;;;0.75;0.75;;;;;;;;5099840;28;8781;-48
2022/05/04 01:03:42;;;;;;;;;0.00;0.00;;;;;;;;5099958;28;8808;-52
2022/05/04 01:06:27;;;;;;;;;0.00;0.00;;;;;;;;5099952;28;8774;-53
2022/05/04 01:09:11;;;;;;;;;0.00;0.00;;;;;;;;5099607;28;8784;-52
2022/05/04 01:11:55;;;;;;;;;0.75;0.00;;;;;;;;5099717;28;8789;-55
2022/05/04 01:14:40;;;;;;;;;0.00;0.00;;;;;;;;5099855;28;8785;-49
2022/05/04 01:17:24;;;;;;;;;0.00;0.00;;;;;;;;5084127;28;8785;-49
2022/05/04 01:20:09;;;;;;;;;0.75;0.00;;;;;;;;5099304;28;8784;-51
2022/05/04 01:22:53;;;;;;;;;0.75;0.00;;;;;;;;5099542;28;8797;-51
2022/05/04 01:25:37;;;;;;;;;0.50;0.00;;;;;;;;5099502;28;8907;-53
2022/05/04 01:28:22;;;;;;;;;1.50;0.00;;;;;;;;5099177;28;8785;-52
2022/05/04 01:31:06;;;;;;;;;0.00;0.00;;;;;;;;5099252;28;8777;-53
2022/05/04 01:33:51;;;;;;;;;0.00;0.00;;;;;;;;5099381;28;8789;-50
2022/05/04 01:36:35;;;;;;;;;1.50;0.00;;;;;;;;5099308;28;9888;-52
2022/05/04 01:39:19;;;;;;;;;0.00;0.00;;;;;;;;5098851;28;8773;-52
2022/05/04 01:42:05;;;;;;;;;1.25;0.00;;;;;;;;5099194;28;8777;-54
2022/05/04 01:44:50;;;;;;;;;3.50;0.00;;;;;;;;5099135;28;8805;-51
2022/05/04 01:47:34;;;;;;;;;4.75;0.00;;;;;;;;5099002;28;8796;-52
2022/05/04 01:50:18;;;;;;;;;0.25;0.00;;;;;;;;5098765;28;9227;-50
2022/05/04 01:53:03;;;;;;;;;0.25;0.00;;;;;;;;5098904;28;8785;-48
2022/05/04 01:55:48;;;;;;;;;0.00;0.00;;;;;;;;5099065;28;8769;-51
2022/05/04 02:11:58;;;;;;;;;0.50;0.00;;;;;;;;4386239;32;51744;-50
2022/05/04 02:14:42;;;;;;;;;0.00;0.00;;;;;;;;5117984;27;51101;-49
2022/05/04 02:17:27;;;;;;;;;0.00;0.00;;;;;;;;5117750;27;51084;-50
2022/05/04 02:20:11;;;;;;;;;0.00;0.00;;;;;;;;5117849;27;51061;-53
2022/05/04 02:22:56;;;;;;;;;0.00;0.00;;;;;;;;5117590;27;51346;-49
2022/05/04 02:25:40;;;;;;;;;1.50;0.00;;;;;;;;5117713;27;51136;-51
2022/05/04 02:28:24;;;;;;;;;0.25;0.00;;;;;;;;5117942;27;51009;-53
2022/05/04 02:31:09;;;;;;;;;0.00;0.00;;;;;;;;5117380;27;51440;-50
2022/05/04 02:33:53;;;;;;;;;0.75;0.00;;;;;;;;5117558;27;51213;-53
2022/05/04 02:39:40;;;;;;;;;0.75;0.00;;;;;;;;5117873;27;51195;-52
2022/05/04 02:42:25;;;;;;;;;0.50;0.00;;;;;;;;5117144;27;51492;-50
2022/05/04 02:45:10;;;;;;;;;0.75;0.00;;;;;;;;5117288;27;51193;-49
2022/05/04 02:47:54;;;;;;;;;0.25;0.00;;;;;;;;5117239;27;51066;-50
2022/05/04 02:50:39;;;;;;;;;0.75;0.75;;;;;;;;5117272;27;51250;-51
2022/05/04 02:53:23;;;;;;;;;0.50;0.00;;;;;;;;5117415;27;51185;-52
2022/05/04 02:56:08;;;;;;;;;1.00;0.75;;;;;;;;5116865;27;51606;-50
2022/05/04 02:58:53;;;;;;;;;1.00;0.00;;;;;;;;5117028;27;51079;-53
2022/05/04 03:04:48;;;;;;;;;1.50;0.00;;;;;;;;5117232;27;51116;-50
2022/05/04 03:07:32;;;;;;;;;0.50;0.00;;;;;;;;5116713;27;51206;-51
2022/05/04 03:10:17;;;;;;;;;0.00;0.00;;;;;;;;5116487;27;51042;-50
2022/05/04 03:13:01;;;;;;;;;0.00;0.00;;;;;;;;5102515;27;51166;-52
2022/05/04 03:15:45;;;;;;;;;0.50;0.00;;;;;;;;5102850;27;51109;-52
2022/05/04 03:18:30;;;;;;;;;2.75;0.00;;;;;;;;5103100;27;51157;-50
2022/05/04 03:21:15;;;;;;;;;0.00;0.00;;;;;;;;5102436;27;51079;-50
2022/05/04 03:23:59;;;;;;;;;0.25;0.00;;;;;;;;5102849;27;51560;-52
2022/05/04 03:26:44;;;;;;;;;0.00;0.00;;;;;;;;5102859;27;51064;-49
2022/05/04 03:29:28;;;;;;;;;1.75;0.00;;;;;;;;5103045;27;51104;-51
2022/05/04 03:32:12;;;;;;;;;0.00;0.00;;;;;;;;5102642;27;51082;-54
2022/05/04 03:34:57;;;;;;;;;0.00;0.00;;;;;;;;5102721;27;51461;-54
2022/05/04 03:37:41;;;;;;;;;0.75;0.00;;;;;;;;5102697;27;51142;-52
2022/05/04 03:40:26;;;;;;;;;0.00;0.00;;;;;;;;5102229;27;51082;-53
2022/05/04 03:43:11;;;;;;;;;1.75;0.00;;;;;;;;5102587;27;50929;-52
2022/05/04 03:45:55;;;;;;;;;0.00;0.00;;;;;;;;5102263;27;51225;-51
2022/05/04 03:48:39;;;;;;;;;1.25;0.00;;;;;;;;5101309;27;51313;-52
2022/05/04 03:51:24;;;;;;;;;1.25;0.00;;;;;;;;5102009;27;51632;-51
2022/05/04 03:54:09;;;;;;;;;0.25;0.00;;;;;;;;5102439;27;51068;-49
2022/05/04 03:56:53;;;;;;;;;0.75;0.00;;;;;;;;5102075;27;51433;-53
2022/05/04 03:59:38;;;;;;;;;1.00;0.00;;;;;;;;5101102;27;51163;-51
2022/05/04 04:02:22;;;;;;;;;1.50;0.50;;;;;;;;5102013;27;51441;-52
2022/05/04 04:05:07;;;;;;;;;0.00;0.00;;;;;;;;5098655;27;51203;-50
2022/05/04 04:07:55;;;;;;;;;0.75;0.00;;;;;;;;5102221;27;51018;-46
2022/05/04 04:10:39;;;;;;;;;2.00;0.00;;;;;;;;5101549;27;51535;-52
2022/05/04 04:13:24;;;;;;;;;0.00;0.00;;;;;;;;5101784;27;50991;-54
2022/05/04 04:16:08;;;;;;;;;2.50;0.00;;;;;;;;5101678;27;51062;-50
2022/05/04 04:18:53;;;;;;;;;3.50;0.00;;;;;;;;5102010;27;51137;-51
2022/05/04 04:21:53;;;;;;;;;1.75;0.25;;;;;;;;5101426;27;51591;-52
2022/05/04 04:24:37;;;;;;;;;0.50;0.00;;;;;;;;5100621;27;51280;-50
2022/05/04 04:27:21;;;;;;;;;0.00;0.00;;;;;;;;5101681;27;51251;-48
2022/05/04 04:30:06;;;;;;;;;3.00;0.75;;;;;;;;5101334;27;51103;-51
2022/05/04 04:32:50;;;;;;;;;0.75;0.00;;;;;;;;5099720;27;51072;-54
2022/05/04 04:35:35;;;;;;;;;2.75;0.00;;;;;;;;5099359;27;51345;-53
2022/05/04 04:38:19;;;;;;;;;1.50;0.00;;;;;;;;5101064;27;51206;-51
2022/05/04 04:41:04;;;;;;;;;1.25;0.00;;;;;;;;5101020;27;51103;-50
2022/05/04 04:43:48;;;;;;;;;0.25;0.00;;;;;;;;5101673;27;51186;-54
2022/05/04 04:46:32;;;;;;;;;1.75;0.00;;;;;;;;5100822;27;51145;-50
2022/05/04 04:49:16;;;;;;;;;0.75;0.75;;;;;;;;5101301;27;51045;-53
2022/05/04 04:52:02;;;;;;;;;3.00;0.00;;;;;;;;5101222;27;51357;-53
2022/05/04 04:54:46;;;;;;;;;0.00;0.00;;;;;;;;5100922;27;51122;-46
2022/05/04 04:57:32;;;;;;;;;1.25;0.00;;;;;;;;5101194;27;50999;-50
2022/05/04 05:00:16;;;;;;;;;0.00;0.00;;;;;;;;5100862;27;51166;-51
2022/05/04 05:03:01;;;;;;;;;2.00;0.00;;;;;;;;5100990;27;51313;-51
2022/05/04 05:05:45;;;;;;;;;0.75;0.75;;;;;;;;5100577;27;51038;-51
2022/05/04 05:08:29;;;;;;;;;0.50;0.00;;;;;;;;5101185;27;51002;-51
2022/05/04 05:11:13;;;;;;;;;4.25;0.00;;;;;;;;5100378;27;51432;-51
2022/05/04 05:17:01;;;;;;;;;0.75;0.00;;;;;;;;5100782;27;51035;-52
2022/05/04 05:19:45;;;;;;;;;1.75;0.50;;;;;;;;5100228;27;51175;-50
2022/05/04 05:22:30;;;;;;;;;1.75;0.75;;;;;;;;5100767;27;51016;-54
2022/05/04 05:25:14;;;;;;;;;2.75;1.00;;;;;;;;5100293;27;51448;-53
2022/05/04 05:27:59;;;;;;;;;3.50;2.00;;;;;;;;5100303;27;51593;-52
2022/05/04 05:30:43;;;;;;;;;0.75;0.50;;;;;;;;5100152;27;51150;-51
2022/05/04 05:33:27;;;;;;;;;2.75;1.00;;;;;;;;5100560;27;51107;-55
2022/05/04 05:36:12;;;;;;;;;1.25;1.00;;;;;;;;5100235;27;51145;-53
2022/05/04 05:38:56;;;;;;;;;3.00;3.00;;;;;;;;5100070;27;51063;-53
2022/05/04 05:41:41;;;;;;;;;3.00;0.50;;;;;;;;5100499;27;51083;-51
2022/05/04 05:44:25;;;;;;;;;1.00;0.75;;;;;;;;5100152;27;51055;-51
2022/05/04 05:47:10;;;;;;;;;0.75;0.25;;;;;;;;5100445;27;51180;-48
2022/05/04 05:49:54;;;;;;;;;1.00;1.00;;;;;;;;5099912;27;51196;-54
2022/05/04 05:52:38;;;;;;;;;0.50;0.50;;;;;;;;5100232;27;51340;-50
2022/05/04 05:55:23;;;;;;;;;1.00;0.75;;;;;;;;5099784;27;51127;-50
2022/05/04 05:58:09;;;;;;;;;2.00;1.00;;;;;;;;5099099;27;51224;-51
2022/05/04 06:00:54;;;;;;;;;0.50;0.50;;;;;;;;5099691;27;51187;-49
2022/05/04 06:03:38;;;;;;;;;2.25;0.50;;;;;;;;5097473;27;51245;-50
2022/05/04 06:06:23;;;;;;;;;4.25;0.00;;;;;;;;5100143;27;51161;-52
2022/05/04 06:09:07;;;;;;;;;3.50;1.25;;;;;;;;5099562;27;51304;-52
2022/05/04 06:11:52;;;;;;;;;2.00;0.25;;;;;;;;5099985;27;51075;-50
2022/05/04 06:14:36;;;;;;;;;0.75;0.75;;;;;;;;5099756;27;51496;-50
2022/05/04 06:17:20;;;;;;;;;2.00;1.00;;;;;;;;5099935;27;51054;-51
2022/05/04 06:20:05;;;;;;;;;3.00;0.50;;;;;;;;5099762;27;51464;-52
2022/05/04 06:22:50;;;;;;;;;2.50;1.00;;;;;;;;5099895;27;52017;-55
2022/05/04 06:25:35;;;;;;;;;0.00;0.00;;;;;;;;5099673;27;51377;-50
2022/05/04 06:28:19;;;;;;;;;3.25;0.00;;;;;;;;5099546;27;51315;-51
2022/05/04 06:34:12;;;;;;;;;0.00;0.00;;;;;;;;5099655;27;51155;-52
2022/05/04 06:36:56;;;;;;;;;1.75;0.50;;;;;;;;5099867;27;51213;-48
2022/05/04 06:39:41;;;;;;;;;0.00;0.00;;;;;;;;5099380;27;51052;-49
2022/05/04 06:42:25;;;;;;;;;0.00;0.00;;;;;;;;5099725;27;51051;-53
2022/05/04 06:45:10;;;;;;;;;0.50;0.00;;;;;;;;5099403;27;51028;-51
2022/05/04 06:47:54;;;;;;;;;1.00;0.00;;;;;;;;5103147;27;51067;-53
2022/05/04 06:50:38;;;;;;;;;4.25;0.75;;;;;;;;5103203;27;51590;-51
2022/05/04 06:53:22;;;;;;;;;2.50;0.00;;;;;;;;5103537;27;53201;-50
2022/05/04 06:56:08;;;;;;;;;0.00;0.00;;;;;;;;5103544;27;51454;-54
2022/05/04 06:58:53;;;;;;;;;1.75;0.75;;;;;;;;5102109;27;51113;-51
2022/05/04 07:01:37;;;;;;;;;4.75;1.75;;;;;;;;5103194;27;51336;-52
2022/05/04 07:04:21;;;;;;;;;0.50;0.00;;;;;;;;5103194;27;51095;-52
2022/05/04 07:07:06;;;;;;;;;1.00;0.00;;;;;;;;5103256;27;51305;-49
2022/05/04 07:09:50;;;;;;;;;3.00;0.00;;;;;;;;5102550;27;51758;-51
2022/05/04 07:12:35;;;;;;;;;2.00;0.00;;;;;;;;5103216;27;51028;-49
2022/05/04 07:15:20;;;;;;;;;0.00;0.00;;;;;;;;5102675;27;50996;-53
2022/05/04 07:18:04;;;;;;;;;0.50;0.00;;;;;;;;5102816;27;51146;-56
2022/05/04 07:20:49;;;;;;;;;3.75;1.00;;;;;;;;5102909;27;51443;-56
2022/05/04 07:23:33;;;;;;;;;3.00;0.00;;;;;;;;5102784;27;51155;-55
2022/05/04 07:26:17;;;;;;;;;5.50;2.00;;;;;;;;5102908;27;51067;-56
2022/05/04 07:29:02;;;;;;;;;2.25;0.00;;;;;;;;5102363;27;51141;-55
2022/05/04 07:31:46;;;;;;;;;0.00;0.00;;;;;;;;5091935;27;51405;-53
2022/05/04 07:34:31;;;;;;;;;0.00;0.00;;;;;;;;5100787;27;50949;-54
2022/05/04 07:37:15;;;;;;;;;1.50;0.00;;;;;;;;5101795;27;51043;-56
2022/05/04 07:43:02;;;;;;;;;1.00;0.00;;;;;;;;5101759;27;50915;-56
2022/05/04 07:45:47;;;;;;;;;1.00;0.00;;;;;;;;5098403;27;51337;-56
2022/05/04 07:48:31;;;;;;;;;0.75;0.75;;;;;;;;5101876;27;51554;-54
2022/05/04 07:51:16;;;;;;;;;2.00;0.00;;;;;;;;5102120;27;51072;-55
2022/05/04 07:54:00;;;;;;;;;0.00;0.00;;;;;;;;5102178;27;51198;-55
2022/05/04 07:56:45;;;;;;;;;0.00;0.00;;;;;;;;5102263;27;51134;-56
2022/05/04 07:59:29;;;;;;;;;0.00;0.00;;;;;;;;5101792;27;51165;-56
2022/05/04 08:05:16;;;;;;;;;0.00;0.00;;;;;;;;5099861;27;51440;-56
2022/05/04 08:08:01;;;;;;;;;0.00;0.00;;;;;;;;5101585;27;51102;-57
2022/05/04 08:10:46;;;;;;;;;0.00;0.00;;;;;;;;5093717;27;51435;-55
2022/05/04 08:13:31;;;;;;;;;4.25;1.00;;;;;;;;5105166;27;51129;-56
2022/05/04 08:16:15;;;;;;;;;2.25;0.00;;;;;;;;5095119;27;51173;-56
2022/05/04 08:19:00;;;;;;;;;0.00;0.00;;;;;;;;5098610;27;51063;-55
2022/05/04 08:21:45;;;;;;;;;2.25;0.75;;;;;;;;5110481;27;51150;-55
2022/05/04 08:24:29;;;;;;;;;2.25;1.50;;;;;;;;5094572;27;51893;-56
2022/05/04 08:27:14;;;;;;;;;0.75;0.00;;;;;;;;5094189;27;51205;-56
2022/05/04 08:30:02;;;;;;;;;0.00;0.00;;;;;;;;5093069;27;51321;-55
2022/05/04 08:32:47;;;;;;;;;0.75;0.00;;;;;;;;5095534;27;51263;-56
2022/05/04 08:35:32;;;;;;;;;0.00;0.00;;;;;;;;5099787;27;51100;-56
2022/05/04 08:38:16;;;;;;;;;0.00;0.00;;;;;;;;5097899;27;51237;-56
2022/05/04 08:41:01;;;;;;;;;1.00;0.00;;;;;;;;5096595;27;51146;-55
2022/05/04 08:43:48;;;;;;;;;2.25;0.00;;;;;;;;5100528;27;51093;-55
2022/05/04 08:46:34;;;;;;;;;0.00;0.00;;;;;;;;5097608;27;51151;-56
2022/05/04 08:49:19;;;;;;;;;0.25;0.25;;;;;;;;5094657;27;51167;-54
2022/05/04 08:52:06;;;;;;;;;0.00;0.00;;;;;;;;5098676;27;51107;-55
2022/05/04 08:54:51;;;;;;;;;1.00;0.00;;;;;;;;5097568;27;51133;-54
2022/05/04 08:57:35;;;;;;;;;0.50;0.00;;;;;;;;5095061;27;51100;-56
2022/05/04 09:00:20;;;;;;;;;0.00;0.00;;;;;;;;5098239;27;51160;-55
2022/05/04 09:03:07;;;;;;;;;0.00;0.00;;;;;;;;5096683;27;51108;-54
2022/05/04 09:05:53;;;;;;;;;1.25;0.50;;;;;;;;5097980;27;51138;-56
2022/05/04 09:09:13;;;;;;;;;0.00;0.00;;;;;;;;5099954;27;51350;-53
2022/05/04 09:12:01;;;;;;;;;0.00;0.00;;;;;;;;5077917;27;51185;-55
2022/05/04 09:14:45;;;;;;;;;1.00;0.00;;;;;;;;5099417;27;51149;-55
2022/05/04 09:17:30;;;;;;;;;2.50;0.00;;;;;;;;5100874;27;51201;-56
2022/05/04 09:23:19;;;;;;;;;0.00;0.00;;;;;;;;5097912;27;51123;-55
2022/05/04 09:26:07;;;;;;;;;0.50;0.00;;;;;;;;5098277;27;51223;-55
2022/05/04 09:28:52;;;;;;;;;2.00;0.00;;;;;;;;5099293;27;51387;-55
2022/05/04 09:31:38;;;;;;;;;2.00;0.50;;;;;;;;5098964;27;51136;-55
2022/05/04 09:34:33;;;;;;;;;0.00;0.00;;;;;;;;5097580;27;51240;-53
2022/05/04 09:46:33;;;;;;;;;0.00;0.00;;;;;;;;5096737;27;51143;-54
2022/05/04 09:49:19;;;;;;;;;1.00;0.00;;;;;;;;5094743;27;51107;-56
2022/05/04 09:52:04;;;;;;;;;1.00;0.00;;;;;;;;5100158;27;51039;-54
2022/05/04 09:54:50;;;;;;;;;0.25;0.00;;;;;;;;5099349;27;51131;-56
2022/05/04 09:57:35;;;;;;;;;2.50;0.00;;;;;;;;5099775;27;51341;-55
2022/05/04 10:00:21;;;;;;;;;0.50;0.00;;;;;;;;5098395;27;51498;-55
2022/05/04 10:03:05;;;;;;;;;0.00;0.00;;;;;;;;5098800;27;51861;-55
2022/05/04 10:05:50;;;;;;;;;0.00;0.00;;;;;;;;5106882;27;51102;-55
2022/05/04 10:08:35;;;;;;;;;0.00;0.00;;;;;;;;5100065;27;51148;-55
2022/05/04 10:11:20;;;;;;;;;0.00;0.00;;;;;;;;5098096;27;51063;-55
2022/05/04 10:14:09;;;;;;;;;0.00;0.00;;;;;;;;5098840;27;51152;-55
2022/05/04 10:17:11;;;;;;;;;1.00;0.00;;;;;;;;5099057;27;51105;-56
2022/05/04 10:20:05;;;;;;;;;0.00;0.00;;;;;;;;5099852;27;51161;-54
2022/05/04 10:22:49;;;;;;;;;0.00;0.00;;;;;;;;5098540;27;51467;-56
2022/05/04 10:25:34;;;;;;;;;0.00;0.00;;;;;;;;5102557;27;51786;-56
2022/05/04 10:28:19;;;;;;;;;1.50;0.00;;;;;;;;5103684;27;51335;-56
2022/05/04 10:31:20;;;;;;;;;0.00;0.00;;;;;;;;4332367;32;51205;-53
2022/05/04 10:34:08;;;;;;;;;0.00;0.00;;;;;;;;5070817;27;51122;-49
2022/05/04 10:36:52;;;;;;;;;1.75;0.00;;;;;;;;5076510;27;51046;-51
2022/05/04 10:39:37;;;;;;;;;1.50;0.00;;;;;;;;5075300;27;51113;-50
2022/05/04 10:42:40;;;;;;;;;1.00;0.00;;;;;;;;5080250;27;51253;-53
2022/05/04 10:45:28;;;;;;;;;3.50;0.00;;;;;;;;5076657;27;51514;-48
2022/05/04 10:48:13;;;;;;;;;1.00;0.00;;;;;;;;5069412;27;51154;-53
2022/05/04 10:51:02;;;;;;;;;0.00;0.00;;;;;;;;5085038;27;51078;-49
2022/05/04 10:53:57;;;;;;;;;0.25;0.00;;;;;;;;5076642;27;51066;-49
2022/05/04 10:56:42;;;;;;;;;1.00;0.00;;;;;;;;5072200;27;51210;-47
2022/05/04 10:59:33;;;;;;;;;1.00;0.00;;;;;;;;5072142;27;51085;-49
2022/05/04 11:02:19;;;;;;;;;0.00;0.00;;;;;;;;5078205;27;51517;-52
2022/05/04 11:05:13;;;;;;;;;0.00;0.00;;;;;;;;5077825;27;51122;-51
2022/05/04 11:07:58;;;;;;;;;0.25;0.25;;;;;;;;5088892;27;51341;-49
2022/05/04 11:10:43;;;;;;;;;0.75;0.00;;;;;;;;5083752;27;51190;-53
2022/05/04 11:13:28;;;;;;;;;0.25;0.00;;;;;;;;5075666;27;51184;-51
2022/05/04 11:16:12;;;;;;;;;0.00;0.00;;;;;;;;5075997;27;51389;-51
2022/05/04 11:19:01;;;;;;;;;0.00;0.00;;;;;;;;5077763;27;51114;-54
2022/05/04 11:21:45;;;;;;;;;1.00;0.00;;;;;;;;5076030;27;51037;-53
2022/05/04 11:24:29;;;;;;;;;0.00;0.00;;;;;;;;5077085;27;51011;-51
2022/05/04 11:27:16;;;;;;;;;0.00;0.00;;;;;;;;5075598;27;51399;-52
2022/05/04 11:30:05;;;;;;;;;4.50;1.75;;;;;;;;5069137;27;51127;-53
2022/05/04 11:32:51;;;;;;;;;3.25;3.25;;;;;;;;5081725;27;51510;-52
2022/05/04 11:35:35;;;;;;;;;0.00;0.00;;;;;;;;5079347;27;51326;-51
2022/05/04 11:38:24;;;;;;;;;2.00;1.00;;;;;;;;5080210;27;51042;-53
2022/05/04 11:41:11;;;;;;;;;2.75;0.00;;;;;;;;5081688;27;51475;-52
2022/05/04 11:43:58;;;;;;;;;0.00;0.00;;;;;;;;5058458;28;51755;-53
2022/05/04 11:46:42;;;;;;;;;0.50;0.00;;;;;;;;5057204;27;51193;-52
2022/05/04 11:49:31;;;;;;;;;1.25;0.00;;;;;;;;5062066;27;51143;-51
2022/05/04 11:52:16;;;;;;;;;0.00;0.00;;;;;;;;5056468;28;51036;-51
2022/05/04 11:55:01;;;;;;;;;0.00;0.00;;;;;;;;5063942;27;51165;-50
2022/05/04 11:57:45;;;;;;;;;0.00;0.00;;;;;;;;5059065;28;51284;-52
2022/05/04 12:00:30;;;;;;;;;1.25;0.00;;;;;;;;5065010;27;51284;-52
2022/05/04 12:03:14;;;;;;;;;1.75;0.00;;;;;;;;5059810;28;51149;-53
2022/05/04 12:06:00;;;;;;;;;1.00;0.00;;;;;;;;5064394;27;51564;-51
2022/05/04 12:08:45;;;;;;;;;0.00;0.00;;;;;;;;5058969;27;51426;-54
2022/05/04 12:11:30;;;;;;;;;1.00;0.00;;;;;;;;5059241;28;51388;-51
2022/05/04 12:14:15;;;;;;;;;2.00;0.00;;;;;;;;5058825;28;51004;-51
2022/05/04 12:16:59;;;;;;;;;2.00;0.00;;;;;;;;5059921;27;51584;-53
2022/05/04 12:19:47;;;;;;;;;1.50;1.00;;;;;;;;5057977;28;51452;-53
2022/05/04 12:22:31;;;;;;;;;0.00;0.00;;;;;;;;5064050;28;51324;-51
2022/05/04 12:25:18;;;;;;;;;1.75;0.00;;;;;;;;5058399;28;51289;-51
2022/05/04 12:28:02;;;;;;;;;0.25;0.00;;;;;;;;5055615;27;51125;-50
2022/05/04 12:33:50;;;;;;;;;0.50;0.00;;;;;;;;5056037;28;51398;-53
2022/05/04 12:36:35;;;;;;;;;0.00;0.00;;;;;;;;5059800;27;51181;-53
2022/05/04 12:39:23;;;;;;;;;1.00;0.00;;;;;;;;5055728;27;52549;-49
2022/05/04 12:42:07;;;;;;;;;0.50;0.00;;;;;;;;5059331;27;51534;-51
2022/05/04 12:44:53;;;;;;;;;0.00;0.00;;;;;;;;5060137;28;51131;-52
2022/05/04 12:47:38;;;;;;;;;1.50;0.00;;;;;;;;5058892;28;51177;-53
2022/05/04 12:50:23;;;;;;;;;0.00;0.00;;;;;;;;5057301;28;51133;-54
2022/05/04 12:53:07;;;;;;;;;0.75;0.00;;;;;;;;5054590;28;51019;-52
2022/05/04 12:58:55;;;;;;;;;0.00;0.00;;;;;;;;5058001;28;51354;-50
2022/05/04 13:01:40;;;;;;;;;1.50;0.00;;;;;;;;5067649;27;51002;-53
2022/05/04 13:04:24;;;;;;;;;0.00;0.00;;;;;;;;5056641;28;51214;-53
2022/05/04 13:07:08;;;;;;;;;0.00;0.00;;;;;;;;5065433;27;51161;-55
2022/05/04 13:09:52;;;;;;;;;0.00;0.00;;;;;;;;5080490;27;51071;-54
2022/05/04 13:12:37;;;;;;;;;3.75;0.75;;;;;;;;5071065;27;51268;-51
2022/05/04 13:15:21;;;;;;;;;1.00;0.00;;;;;;;;5055559;27;51173;-49
2022/05/04 13:18:08;;;;;;;;;0.00;0.00;;;;;;;;5065436;27;51069;-52
2022/05/04 13:20:52;;;;;;;;;0.00;0.00;;;;;;;;5061413;27;53214;-53
2022/05/04 13:23:37;;;;;;;;;1.00;0.00;;;;;;;;5063783;27;51265;-53
2022/05/04 13:26:21;;;;;;;;;3.25;2.00;;;;;;;;5064232;27;51398;-53
2022/05/04 13:29:06;;;;;;;;;1.00;0.00;;;;;;;;5060992;28;50955;-56
2022/05/04 13:31:50;;;;;;;;;1.00;0.00;;;;;;;;5063517;27;51431;-54
2022/05/04 13:34:39;;;;;;;;;0.00;0.00;;;;;;;;5057783;27;51102;-52
2022/05/04 13:37:24;;;;;;;;;0.00;0.00;;;;;;;;5080058;27;51025;-53
2022/05/04 13:40:23;;;;;;;;;0.00;0.00;;;;;;;;5076226;27;51017;-53
2022/05/04 13:43:19;;;;;;;;;0.00;0.00;;;;;;;;5060148;28;51061;-53
2022/05/04 13:46:28;;;;;;;;;1.50;0.00;;;;;;;;5059732;28;51541;-51
2022/05/04 13:49:13;;;;;;;;;0.00;0.00;;;;;;;;5054986;28;51407;-52
2022/05/04 16:28:44;;;;;;;;;22.00;22.00;;;;;;;;4198041;31;6233371;-45
2022/05/04 16:31:29;;;;;;;;;15.75;8.00;;;;;;;;5116492;27;51189;-46
2022/05/04 16:34:15;;;;;;;;;21.50;18.50;;;;;;;;5116946;27;51174;-45
2022/05/04 16:37:01;;;;;;;;;9.75;9.75;;;;;;;;5117470;27;51408;-46
2022/05/04 16:39:46;;;;;;;;;13.75;12.75;;;;;;;;5117137;27;51164;-46
2022/05/04 16:42:32;;;;;;;;;11.75;10.25;;;;;;;;5116700;27;51219;-46
2022/05/04 16:45:17;;;;;;;;;14.75;11.25;;;;;;;;5116551;27;51172;-45
2022/05/04 16:48:07;;;;;;;;;20.00;17.50;;;;;;;;5116219;27;51092;-46
2022/05/04 16:50:53;;;;;;;;;18.50;13.25;;;;;;;;5116510;27;51173;-47
2022/05/04 16:53:38;;;;;;;;;16.75;14.00;;;;;;;;5113607;27;51152;-47
2022/05/04 16:56:28;;;;;;;;;13.75;10.00;;;;;;;;5114878;27;51476;-47
2022/05/04 16:59:14;;;;;;;;;15.50;12.00;;;;;;;;5114494;27;51210;-47
2022/05/04 17:02:00;;;;;;;;;12.75;9.75;;;;;;;;5115605;27;51562;-46
2022/05/04 17:04:44;;;;;;;;;8.00;8.00;;;;;;;;5115790;27;51199;-47
2022/05/04 17:07:31;;;;;;;;;10.75;7.25;;;;;;;;5116557;27;51047;-49
2022/05/04 17:10:15;;;;;;;;;8.50;8.00;;;;;;;;5115454;27;51480;-45
2022/05/04 17:13:01;;;;;;;;;9.25;7.00;;;;;;;;5114801;27;51182;-47
2022/05/04 17:15:47;;;;;;;;;10.50;8.25;;;;;;;;5116408;27;51064;-46
2022/05/04 17:18:33;;;;;;;;;10.75;7.50;;;;;;;;5116395;27;51169;-47
2022/05/04 17:21:18;;;;;;;;;9.25;7.00;;;;;;;;5116085;27;51124;-46
2022/05/04 17:24:05;;;;;;;;;10.25;7.75;;;;;;;;5115461;27;51148;-47
2022/05/04 17:26:50;;;;;;;;;8.50;8.50;;;;;;;;5116682;27;51517;-47
2022/05/04 17:29:35;;;;;;;;;10.50;9.25;;;;;;;;5103759;27;51039;-48
2022/05/04 17:38:26;;;;;;;;;6.25;6.25;;;;;;;;5101344;27;51450;-48
2022/05/04 17:41:12;;;;;;;;;10.00;8.50;;;;;;;;5102174;27;51159;-45
2022/05/04 17:43:56;;;;;;;;;13.25;9.50;;;;;;;;5102457;27;51256;-48
2022/05/04 17:46:41;;;;;;;;;11.00;7.25;;;;;;;;5101740;27;51540;-47
2022/05/04 17:49:26;;;;;;;;;7.00;6.00;;;;;;;;5101762;27;51271;-48
2022/05/04 17:52:11;;;;;;;;;10.25;8.00;;;;;;;;5091238;27;51231;-46
2022/05/04 17:54:55;;;;;;;;;9.75;7.00;;;;;;;;5099471;27;51213;-47
2022/05/04 17:57:39;;;;;;;;;8.00;7.00;;;;;;;;5097994;27;51156;-45
2022/05/04 18:00:23;;;;;;;;;7.00;5.75;;;;;;;;5100707;27;51168;-47
2022/05/04 18:06:15;;;;;;;;;7.00;6.50;;;;;;;;5100568;27;51003;-46
2022/05/04 18:09:00;;;;;;;;;8.50;6.25;;;;;;;;5100660;27;51192;-47
2022/05/04 18:11:45;;;;;;;;;10.75;9.75;;;;;;;;5100579;27;51195;-47
2022/05/04 18:14:30;;;;;;;;;9.50;9.50;;;;;;;;5100921;27;51177;-48
2022/05/04 18:17:14;;;;;;;;;11.50;9.00;;;;;;;;5098065;27;51085;-45
2022/05/04 18:19:59;;;;;;;;;14.00;9.25;;;;;;;;5098430;27;51188;-48
2022/05/04 18:22:43;;;;;;;;;13.00;10.00;;;;;;;;5099666;27;51072;-45
2022/05/04 18:25:28;;;;;;;;;8.25;6.75;;;;;;;;5098843;27;51484;-47
2022/05/04 18:28:15;;;;;;;;;11.00;7.75;;;;;;;;5100517;27;51176;-46
2022/05/04 18:31:00;;;;;;;;;11.00;6.25;;;;;;;;5100809;27;51232;-46
2022/05/04 18:33:44;;;;;;;;;11.25;6.25;;;;;;;;5091765;27;51316;-46
2022/05/04 18:36:32;;;;;;;;;4.50;4.50;;;;;;;;5099492;27;51243;-46
2022/05/04 18:39:18;;;;;;;;;9.25;7.00;;;;;;;;5098501;27;51107;-46
2022/05/04 18:42:02;;;;;;;;;13.75;7.25;;;;;;;;5100427;27;51181;-45
2022/05/04 18:44:48;;;;;;;;;8.00;6.50;;;;;;;;5099701;27;51202;-45
2022/05/04 18:47:32;;;;;;;;;10.25;6.25;;;;;;;;5100390;27;51121;-45
2022/05/04 18:50:17;;;;;;;;;11.00;6.25;;;;;;;;5097878;27;51097;-46
2022/05/04 18:53:02;;;;;;;;;7.25;6.00;;;;;;;;5098128;27;51137;-46
2022/05/04 18:55:47;;;;;;;;;8.00;6.75;;;;;;;;5100512;27;51099;-45
2022/05/04 18:58:48;;;;;;;;;10.25;3.50;;;;;;;;5100366;27;51212;-45
2022/05/04 19:01:34;;;;;;;;;4.75;4.75;;;;;;;;5099667;27;51108;-47
2022/05/04 19:04:19;;;;;;;;;5.25;5.25;;;;;;;;5097613;27;51038;-47
2022/05/04 19:07:05;;;;;;;;;3.25;2.50;;;;;;;;5098824;27;51564;-48
2022/05/04 19:09:49;;;;;;;;;6.75;6.75;;;;;;;;5099312;27;51075;-45
2022/05/04 19:12:33;;;;;;;;;8.25;7.00;;;;;;;;5099937;27;51142;-46
2022/05/04 19:15:18;;;;;;;;;1.00;1.00;;;;;;;;5097388;27;51115;-46
2022/05/04 19:18:04;;;;;;;;;10.00;5.00;;;;;;;;5099419;27;51144;-46
2022/05/04 19:20:49;;;;;;;;;6.00;6.00;;;;;;;;5098996;27;51152;-47
2022/05/04 19:23:33;;;;;;;;;10.25;8.25;;;;;;;;5099235;27;51069;-46
2022/05/04 19:26:18;;;;;;;;;9.25;6.25;;;;;;;;5098883;27;51504;-48
2022/05/04 19:29:03;;;;;;;;;12.00;8.00;;;;;;;;5099089;27;51041;-44
2022/05/04 19:31:47;;;;;;;;;10.50;10.50;;;;;;;;5099528;27;51201;-45
2022/05/04 19:34:32;;;;;;;;;31.50;28.50;;;;;;;;5099088;27;51148;-49
2022/05/04 19:37:18;;;;;;;;;39.00;32.75;;;;;;;;5083785;27;51285;-47
2022/05/04 19:40:02;;;;;;;;;37.00;29.75;;;;;;;;5100212;27;51534;-46
2022/05/04 19:42:47;;;;;;;;;43.00;32.00;;;;;;;;5098479;27;51023;-46
2022/05/04 19:45:33;;;;;;;;;34.00;30.75;;;;;;;;5100287;27;51145;-46
2022/05/04 19:48:17;;;;;;;;;39.75;32.25;;;;;;;;5098967;27;51139;-45
2022/05/04 19:51:01;;;;;;;;;45.25;35.00;;;;;;;;5098897;27;51099;-45
2022/05/04 19:53:46;;;;;;;;;37.00;31.50;;;;;;;;5095916;27;51152;-45
2022/05/04 19:56:31;;;;;;;;;37.50;33.00;;;;;;;;5097093;27;51058;-47
2022/05/04 19:59:17;;;;;;;;;35.50;32.00;;;;;;;;5094745;27;52297;-47
2022/05/04 20:02:05;;;;;;;;;30.75;29.25;;;;;;;;5094133;27;51191;-46
2022/05/04 20:04:49;;;;;;;;;26.75;24.00;;;;;;;;5083497;27;51469;-45
2022/05/04 20:07:34;;;;;;;;;29.75;21.00;;;;;;;;5097169;27;51110;-47